ITY1265 LIML-LIRF
Flight info
| Callsign | ITY1265 |
|---|---|
| Flight time | 0h 57m |
| Altitude | 33000 |
| Route | EKPAL DCT TINKU DCT XIBIL |
| Aircraft | A320/M-SDE3FGHIRWY/LB1 |
Departure
| Time | 2026-05-01 13:09 |
|---|---|
| Airport | Milano Linate Airport (LIML) |
Arrival
| Time | 2026-05-01 14:06 |
|---|---|
| Airport | Rome–Fiumicino Leonardo da Vinci International Airport (LIRF) |
| Time | Latitude | Longitude | Altitude | Speed | Heading |
|---|---|---|---|---|---|
| 2026-05-01 12:33 | 45.45974 | 9.27967 | 360 ft | 0 kts | 0° |
| 2026-05-01 12:57 | 45.45937 | 9.27966 | 360 ft | 3 kts | 0° |
| 2026-05-01 12:57 | 45.45914 | 9.27958 | 360 ft | 4 kts | 58° |
| 2026-05-01 12:58 | 45.45907 | 9.27923 | 361 ft | 4 kts | 89° |
| 2026-05-01 12:58 | 45.45907 | 9.27941 | 364 ft | 0 kts | 90° |
| 2026-05-01 13:01 | 45.45805 | 9.27983 | 360 ft | 15 kts | 181° |
| 2026-05-01 13:01 | 45.45704 | 9.27981 | 360 ft | 14 kts | 181° |
| 2026-05-01 13:01 | 45.45532 | 9.27978 | 360 ft | 11 kts | 180° |
| 2026-05-01 13:02 | 45.45459 | 9.27978 | 360 ft | 11 kts | 180° |
| 2026-05-01 13:07 | 45.43440 | 9.27896 | 364 ft | 7 kts | 267° |
| 2026-05-01 13:07 | 45.43447 | 9.27828 | 364 ft | 9 kts | 302° |
| 2026-05-01 13:07 | 45.43483 | 9.27813 | 362 ft | 3 kts | 358° |
| 2026-05-01 13:08 | 45.43575 | 9.27807 | 365 ft | 38 kts | 356° |
| 2026-05-01 13:08 | 45.43871 | 9.27774 | 359 ft | 89 kts | 355° |
| 2026-05-01 13:08 | 45.44742 | 9.27683 | 368 ft | 148 kts | 356° |
| 2026-05-01 13:08 | 45.45817 | 9.27575 | 906 ft | 154 kts | 356° |
| 2026-05-01 13:09 | 45.46889 | 9.27479 | 1655 ft | 155 kts | 358° |
| 2026-05-01 13:09 | 45.47968 | 9.27347 | 2262 ft | 160 kts | 355° |
| 2026-05-01 13:09 | 45.49149 | 9.27380 | 2568 ft | 181 kts | 21° |
| 2026-05-01 13:09 | 45.50109 | 9.28606 | 2892 ft | 198 kts | 65° |
| 2026-05-01 13:10 | 45.50221 | 9.30607 | 3264 ft | 216 kts | 104° |
| 2026-05-01 13:10 | 45.49822 | 9.32703 | 4019 ft | 219 kts | 105° |
| 2026-05-01 13:10 | 45.49404 | 9.34797 | 5013 ft | 220 kts | 105° |
| 2026-05-01 13:10 | 45.48982 | 9.36897 | 5855 ft | 222 kts | 105° |
| 2026-05-01 13:11 | 45.48362 | 9.38913 | 6668 ft | 226 kts | 126° |
| 2026-05-01 13:11 | 45.47190 | 9.40456 | 7275 ft | 242 kts | 150° |
| 2026-05-01 13:11 | 45.45555 | 9.41414 | 7691 ft | 266 kts | 158° |
| 2026-05-01 13:11 | 45.43771 | 9.42354 | 8363 ft | 278 kts | 158° |
| 2026-05-01 13:12 | 45.41937 | 9.43319 | 9225 ft | 283 kts | 158° |
| 2026-05-01 13:12 | 45.40074 | 9.44303 | 10111 ft | 288 kts | 158° |
| 2026-05-01 13:12 | 45.38182 | 9.45306 | 10903 ft | 293 kts | 157° |
| 2026-05-01 13:12 | 45.36261 | 9.46331 | 11685 ft | 297 kts | 156° |
| 2026-05-01 13:13 | 45.34311 | 9.47377 | 12412 ft | 302 kts | 156° |
| 2026-05-01 13:13 | 45.32331 | 9.48443 | 13162 ft | 307 kts | 156° |
| 2026-05-01 13:13 | 45.30322 | 9.49523 | 13939 ft | 311 kts | 156° |
| 2026-05-01 13:13 | 45.28281 | 9.50615 | 14628 ft | 316 kts | 156° |
| 2026-05-01 13:14 | 45.26215 | 9.51721 | 15307 ft | 319 kts | 156° |
| 2026-05-01 13:14 | 45.24123 | 9.52843 | 15974 ft | 323 kts | 155° |
| 2026-05-01 13:14 | 45.22007 | 9.53976 | 16647 ft | 327 kts | 156° |
| 2026-05-01 13:14 | 45.19848 | 9.55136 | 17020 ft | 341 kts | 155° |
| 2026-05-01 13:15 | 45.17567 | 9.56393 | 17157 ft | 362 kts | 155° |
| 2026-05-01 13:15 | 45.15170 | 9.57729 | 17443 ft | 376 kts | 155° |
| 2026-05-01 13:15 | 45.12713 | 9.59097 | 18002 ft | 382 kts | 155° |
| 2026-05-01 13:15 | 45.10222 | 9.60478 | 18613 ft | 387 kts | 155° |
| 2026-05-01 13:16 | 45.07709 | 9.61886 | 19151 ft | 390 kts | 154° |
| 2026-05-01 13:16 | 45.05206 | 9.63418 | 19687 ft | 394 kts | 153° |
| 2026-05-01 13:16 | 45.02708 | 9.65053 | 20219 ft | 398 kts | 152° |
| 2026-05-01 13:17 | 44.95100 | 9.70186 | 21801 ft | 410 kts | 152° |
| 2026-05-01 13:17 | 44.92502 | 9.71908 | 22327 ft | 415 kts | 152° |
| 2026-05-01 13:18 | 44.87213 | 9.75365 | 23353 ft | 423 kts | 152° |
| 2026-05-01 13:18 | 44.84562 | 9.77083 | 23834 ft | 427 kts | 152° |
| 2026-05-01 13:18 | 44.81846 | 9.78840 | 24257 ft | 431 kts | 152° |
| 2026-05-01 13:18 | 44.79074 | 9.80631 | 24686 ft | 434 kts | 152° |
| 2026-05-01 13:19 | 44.76359 | 9.82387 | 25103 ft | 437 kts | 152° |
| 2026-05-01 13:19 | 44.73554 | 9.84200 | 25521 ft | 439 kts | 152° |
| 2026-05-01 13:19 | 44.68210 | 9.88225 | 26294 ft | 439 kts | 140° |
| 2026-05-01 13:20 | 44.65902 | 9.91013 | 26673 ft | 437 kts | 130° |
| 2026-05-01 13:20 | 44.63791 | 9.94096 | 27059 ft | 439 kts | 130° |
| 2026-05-01 13:20 | 44.61664 | 9.97189 | 27440 ft | 442 kts | 130° |
| 2026-05-01 13:21 | 44.57357 | 10.03405 | 28168 ft | 446 kts | 130° |
| 2026-05-01 13:21 | 44.55183 | 10.06528 | 28539 ft | 449 kts | 130° |
| 2026-05-01 13:21 | 44.52997 | 10.09664 | 28893 ft | 451 kts | 130° |
| 2026-05-01 13:21 | 44.50777 | 10.12786 | 29233 ft | 455 kts | 133° |
| 2026-05-01 13:22 | 44.48271 | 10.15549 | 29561 ft | 462 kts | 143° |
| 2026-05-01 13:22 | 44.45451 | 10.17764 | 29872 ft | 469 kts | 152° |
| 2026-05-01 13:22 | 44.42402 | 10.19455 | 30170 ft | 473 kts | 156° |
| 2026-05-01 13:22 | 44.39310 | 10.21081 | 30456 ft | 476 kts | 156° |
| 2026-05-01 13:23 | 44.36209 | 10.22714 | 30696 ft | 478 kts | 156° |
| 2026-05-01 13:23 | 44.33096 | 10.24360 | 30937 ft | 479 kts | 156° |
| 2026-05-01 13:23 | 44.29972 | 10.26014 | 31177 ft | 481 kts | 156° |
| 2026-05-01 13:23 | 44.26838 | 10.27675 | 31402 ft | 483 kts | 156° |
| 2026-05-01 13:24 | 44.23695 | 10.29337 | 31665 ft | 483 kts | 156° |
| 2026-05-01 13:24 | 44.20557 | 10.30990 | 31987 ft | 482 kts | 156° |
| 2026-05-01 13:24 | 44.17419 | 10.32636 | 32295 ft | 481 kts | 156° |
| 2026-05-01 13:25 | 44.11151 | 10.35916 | 32924 ft | 481 kts | 156° |
| 2026-05-01 13:25 | 44.08024 | 10.37551 | 33221 ft | 480 kts | 156° |
| 2026-05-01 13:25 | 44.04907 | 10.39183 | 33301 ft | 475 kts | 156° |
| 2026-05-01 13:26 | 43.98785 | 10.42383 | 33305 ft | 468 kts | 156° |
| 2026-05-01 13:26 | 43.92708 | 10.45559 | 33300 ft | 467 kts | 156° |
| 2026-05-01 13:27 | 43.86620 | 10.48718 | 33297 ft | 467 kts | 156° |
| 2026-05-01 13:27 | 43.77476 | 10.53464 | 33302 ft | 468 kts | 156° |
| 2026-05-01 13:28 | 43.68242 | 10.57938 | 33302 ft | 470 kts | 159° |
| 2026-05-01 13:29 | 43.55814 | 10.63569 | 33284 ft | 470 kts | 158° |
| 2026-05-01 13:31 | 43.37153 | 10.72208 | 33267 ft | 473 kts | 158° |
| 2026-05-01 13:32 | 43.22574 | 10.78899 | 33258 ft | 475 kts | 158° |
| 2026-05-01 13:33 | 43.06857 | 10.86082 | 33254 ft | 478 kts | 158° |
| 2026-05-01 13:34 | 42.94207 | 10.91825 | 33237 ft | 481 kts | 158° |
| 2026-05-01 13:35 | 42.87846 | 10.94711 | 32437 ft | 481 kts | 158° |
| 2026-05-01 13:35 | 42.84711 | 10.96269 | 31799 ft | 476 kts | 152° |
| 2026-05-01 13:35 | 42.79285 | 11.01063 | 30677 ft | 456 kts | 130° |
| 2026-05-01 13:36 | 42.77131 | 11.04156 | 30099 ft | 444 kts | 121° |
| 2026-05-01 13:36 | 42.75390 | 11.07548 | 29565 ft | 432 kts | 114° |
| 2026-05-01 13:36 | 42.72184 | 11.14357 | 28559 ft | 423 kts | 114° |
| 2026-05-01 13:37 | 42.70597 | 11.17692 | 28061 ft | 418 kts | 114° |
| 2026-05-01 13:37 | 42.69024 | 11.20989 | 27568 ft | 414 kts | 114° |
| 2026-05-01 13:37 | 42.67470 | 11.24251 | 27092 ft | 409 kts | 114° |
| 2026-05-01 13:37 | 42.65929 | 11.27486 | 26591 ft | 406 kts | 114° |
| 2026-05-01 13:38 | 42.62898 | 11.33862 | 25705 ft | 398 kts | 114° |
| 2026-05-01 13:38 | 42.61405 | 11.37004 | 25264 ft | 394 kts | 114° |
| 2026-05-01 13:38 | 42.59921 | 11.40119 | 24844 ft | 391 kts | 114° |
| 2026-05-01 13:39 | 42.58448 | 11.43202 | 24418 ft | 388 kts | 114° |
| 2026-05-01 13:39 | 42.56984 | 11.46263 | 23990 ft | 385 kts | 115° |
| 2026-05-01 13:39 | 42.55293 | 11.49121 | 23509 ft | 394 kts | 126° |
| 2026-05-01 13:39 | 42.53183 | 11.51538 | 23020 ft | 402 kts | 138° |
| 2026-05-01 13:40 | 42.50748 | 11.53358 | 22537 ft | 410 kts | 150° |
| 2026-05-01 13:40 | 42.48053 | 11.54667 | 22031 ft | 412 kts | 155° |
| 2026-05-01 13:40 | 42.45345 | 11.55924 | 21520 ft | 411 kts | 154° |
| 2026-05-01 13:40 | 42.42681 | 11.57188 | 21335 ft | 398 kts | 151° |
| 2026-05-01 13:41 | 42.40287 | 11.58834 | 21187 ft | 376 kts | 139° |
| 2026-05-01 13:41 | 42.38258 | 11.60939 | 20883 ft | 360 kts | 127° |
| 2026-05-01 13:41 | 42.36469 | 11.63260 | 20597 ft | 355 kts | 127° |
| 2026-05-01 13:41 | 42.34689 | 11.65557 | 20305 ft | 353 kts | 127° |
| 2026-05-01 13:42 | 42.32913 | 11.67834 | 20004 ft | 351 kts | 127° |
| 2026-05-01 13:42 | 42.31143 | 11.70095 | 19717 ft | 349 kts | 127° |
| 2026-05-01 13:42 | 42.29380 | 11.72344 | 19430 ft | 348 kts | 127° |
| 2026-05-01 13:42 | 42.27624 | 11.74579 | 19135 ft | 346 kts | 128° |
| 2026-05-01 13:43 | 42.25879 | 11.76802 | 18850 ft | 344 kts | 128° |
| 2026-05-01 13:43 | 42.24140 | 11.79016 | 18555 ft | 343 kts | 128° |
| 2026-05-01 13:43 | 42.22411 | 11.81216 | 18247 ft | 341 kts | 128° |
| 2026-05-01 13:43 | 42.20690 | 11.83406 | 17965 ft | 339 kts | 128° |
| 2026-05-01 13:44 | 42.18976 | 11.85586 | 17685 ft | 338 kts | 129° |
| 2026-05-01 13:44 | 42.17272 | 11.87756 | 17403 ft | 337 kts | 129° |
| 2026-05-01 13:44 | 42.15572 | 11.89916 | 17171 ft | 335 kts | 129° |
| 2026-05-01 13:44 | 42.13937 | 11.92125 | 16907 ft | 328 kts | 122° |
| 2026-05-01 13:45 | 42.12677 | 11.94618 | 16658 ft | 317 kts | 110° |
| 2026-05-01 13:45 | 42.11732 | 11.97278 | 16408 ft | 314 kts | 108° |
| 2026-05-01 13:45 | 42.10800 | 11.99931 | 16155 ft | 313 kts | 108° |
| 2026-05-01 13:45 | 42.09867 | 12.02576 | 15913 ft | 312 kts | 108° |
| 2026-05-01 13:46 | 42.08932 | 12.05216 | 15660 ft | 312 kts | 109° |
| 2026-05-01 13:46 | 42.07999 | 12.07840 | 15410 ft | 310 kts | 109° |
| 2026-05-01 13:46 | 42.07070 | 12.10455 | 15163 ft | 309 kts | 109° |
| 2026-05-01 13:46 | 42.06143 | 12.13060 | 14919 ft | 308 kts | 109° |
| 2026-05-01 13:47 | 42.05217 | 12.15656 | 14666 ft | 307 kts | 109° |
| 2026-05-01 13:47 | 42.04297 | 12.18240 | 14414 ft | 306 kts | 110° |
| 2026-05-01 13:47 | 42.03649 | 12.20062 | 14235 ft | 305 kts | 110° |
| 2026-05-01 13:47 | 42.02815 | 12.22455 | 13981 ft | 304 kts | 109° |
| 2026-05-01 13:48 | 42.01906 | 12.25017 | 13718 ft | 303 kts | 110° |
| 2026-05-01 13:48 | 42.00995 | 12.27560 | 13459 ft | 301 kts | 110° |
| 2026-05-01 13:48 | 42.00092 | 12.30071 | 13280 ft | 294 kts | 110° |
| 2026-05-01 13:48 | 41.99093 | 12.32436 | 12984 ft | 290 kts | 123° |
| 2026-05-01 13:49 | 41.97639 | 12.34308 | 12787 ft | 292 kts | 141° |
| 2026-05-01 13:49 | 41.95808 | 12.35490 | 12625 ft | 295 kts | 158° |
| 2026-05-01 13:49 | 41.93855 | 12.36307 | 12402 ft | 293 kts | 159° |
| 2026-05-01 13:49 | 41.91908 | 12.37112 | 12161 ft | 292 kts | 159° |
| 2026-05-01 13:50 | 41.89972 | 12.37911 | 11930 ft | 291 kts | 159° |
| 2026-05-01 13:50 | 41.88045 | 12.38709 | 11697 ft | 289 kts | 159° |
| 2026-05-01 13:50 | 41.86126 | 12.39504 | 11459 ft | 287 kts | 159° |
| 2026-05-01 13:50 | 41.84240 | 12.40283 | 11292 ft | 280 kts | 159° |
| 2026-05-01 13:51 | 41.82390 | 12.41051 | 11032 ft | 277 kts | 159° |
| 2026-05-01 13:51 | 41.80559 | 12.41815 | 10785 ft | 274 kts | 159° |
| 2026-05-01 13:51 | 41.78751 | 12.42572 | 10580 ft | 271 kts | 159° |
| 2026-05-01 13:51 | 41.76959 | 12.43321 | 10364 ft | 269 kts | 159° |
| 2026-05-01 13:52 | 41.75176 | 12.44068 | 10150 ft | 268 kts | 159° |
| 2026-05-01 13:52 | 41.73402 | 12.44809 | 9920 ft | 267 kts | 159° |
| 2026-05-01 13:52 | 41.71631 | 12.45548 | 9704 ft | 266 kts | 159° |
| 2026-05-01 13:52 | 41.69867 | 12.46279 | 9494 ft | 265 kts | 159° |
| 2026-05-01 13:53 | 41.68109 | 12.47005 | 9281 ft | 264 kts | 159° |
| 2026-05-01 13:53 | 41.64610 | 12.48451 | 8908 ft | 263 kts | 159° |
| 2026-05-01 13:53 | 41.62866 | 12.49171 | 8746 ft | 262 kts | 160° |
| 2026-05-01 13:54 | 41.61128 | 12.49889 | 8574 ft | 261 kts | 160° |
| 2026-05-01 13:54 | 41.59389 | 12.50607 | 8273 ft | 262 kts | 160° |
| 2026-05-01 13:54 | 41.57657 | 12.51318 | 8062 ft | 259 kts | 160° |
| 2026-05-01 13:54 | 41.55940 | 12.52019 | 7876 ft | 258 kts | 160° |
| 2026-05-01 13:55 | 41.54229 | 12.52718 | 7718 ft | 257 kts | 160° |
| 2026-05-01 13:55 | 41.52520 | 12.53416 | 7545 ft | 256 kts | 160° |
| 2026-05-01 13:55 | 41.50841 | 12.54102 | 7378 ft | 255 kts | 160° |
| 2026-05-01 13:55 | 41.49147 | 12.54802 | 7190 ft | 254 kts | 160° |
| 2026-05-01 13:56 | 41.47458 | 12.55501 | 7016 ft | 254 kts | 160° |
| 2026-05-01 13:56 | 41.45750 | 12.56065 | 6820 ft | 254 kts | 176° |
| 2026-05-01 13:56 | 41.44034 | 12.55590 | 6646 ft | 255 kts | 209° |
| 2026-05-01 13:56 | 41.42746 | 12.54024 | 6442 ft | 252 kts | 241° |
| 2026-05-01 13:57 | 41.42117 | 12.51871 | 6253 ft | 250 kts | 256° |
| 2026-05-01 13:57 | 41.41771 | 12.50374 | 6121 ft | 250 kts | 256° |
| 2026-05-01 13:57 | 41.41174 | 12.47422 | 5865 ft | 246 kts | 270° |
| 2026-05-01 13:57 | 41.41488 | 12.45295 | 5695 ft | 228 kts | 302° |
| 2026-05-01 13:58 | 41.42539 | 12.43758 | 5540 ft | 227 kts | 333° |
| 2026-05-01 13:58 | 41.44001 | 12.43001 | 5375 ft | 226 kts | 346° |
| 2026-05-01 13:58 | 41.45510 | 12.42386 | 5210 ft | 227 kts | 346° |
| 2026-05-01 13:58 | 41.47025 | 12.41775 | 5048 ft | 228 kts | 346° |
| 2026-05-01 13:59 | 41.48537 | 12.41155 | 4888 ft | 227 kts | 345° |
| 2026-05-01 13:59 | 41.50048 | 12.40530 | 4726 ft | 227 kts | 345° |
| 2026-05-01 13:59 | 41.51553 | 12.39907 | 4579 ft | 227 kts | 345° |
| 2026-05-01 13:59 | 41.53061 | 12.39282 | 4433 ft | 227 kts | 345° |
| 2026-05-01 14:00 | 41.54567 | 12.38657 | 4285 ft | 226 kts | 345° |
| 2026-05-01 14:00 | 41.56058 | 12.38038 | 4135 ft | 221 kts | 345° |
| 2026-05-01 14:00 | 41.57510 | 12.37436 | 3993 ft | 217 kts | 345° |
| 2026-05-01 14:00 | 41.58943 | 12.36841 | 3852 ft | 215 kts | 345° |
| 2026-05-01 14:01 | 41.60371 | 12.36249 | 3710 ft | 215 kts | 345° |
| 2026-05-01 14:01 | 41.61798 | 12.35657 | 3567 ft | 215 kts | 344° |
| 2026-05-01 14:01 | 41.63225 | 12.35064 | 3400 ft | 215 kts | 345° |
| 2026-05-01 14:01 | 41.64646 | 12.34473 | 3175 ft | 214 kts | 344° |
| 2026-05-01 14:02 | 41.66059 | 12.33885 | 3050 ft | 209 kts | 344° |
| 2026-05-01 14:02 | 41.67432 | 12.33314 | 2836 ft | 205 kts | 344° |
| 2026-05-01 14:02 | 41.68773 | 12.32755 | 2596 ft | 198 kts | 344° |
| 2026-05-01 14:02 | 41.70069 | 12.32214 | 2322 ft | 193 kts | 344° |
| 2026-05-01 14:03 | 41.71316 | 12.31695 | 2064 ft | 188 kts | 343° |
| 2026-05-01 14:03 | 41.72572 | 12.31172 | 1801 ft | 187 kts | 344° |
| 2026-05-01 14:03 | 41.73748 | 12.30681 | 1579 ft | 168 kts | 344° |
| 2026-05-01 14:03 | 41.74828 | 12.30224 | 1306 ft | 158 kts | 343° |
| 2026-05-01 14:04 | 41.75846 | 12.29778 | 1106 ft | 149 kts | 345° |
| 2026-05-01 14:04 | 41.76815 | 12.29387 | 895 ft | 143 kts | 346° |
| 2026-05-01 14:04 | 41.77757 | 12.28987 | 795 ft | 142 kts | 343° |
| 2026-05-01 14:04 | 41.78395 | 12.28729 | 680 ft | 141 kts | 346° |
| 2026-05-01 14:05 | 41.79625 | 12.28217 | 397 ft | 139 kts | 345° |
| 2026-05-01 14:05 | 41.80546 | 12.27843 | 216 ft | 137 kts | 344° |
| 2026-05-01 14:05 | 41.81458 | 12.27464 | 47 ft | 137 kts | 345° |
| 2026-05-01 14:05 | 41.82280 | 12.27123 | 12 ft | 101 kts | 342° |
| 2026-05-01 14:06 | 41.82784 | 12.26912 | 16 ft | 49 kts | 342° |
| 2026-05-01 14:06 | 41.83014 | 12.26786 | 15 ft | 28 kts | 326° |
| 2026-05-01 14:06 | 41.83163 | 12.26626 | 15 ft | 28 kts | 315° |
| 2026-05-01 14:06 | 41.83242 | 12.26465 | 15 ft | 17 kts | 258° |
| 2026-05-01 14:07 | 41.83144 | 12.26439 | 17 ft | 15 kts | 165° |
| 2026-05-01 14:07 | 41.83045 | 12.26479 | 15 ft | 16 kts | 162° |
| 2026-05-01 14:07 | 41.82926 | 12.26529 | 15 ft | 20 kts | 162° |
| 2026-05-01 14:08 | 41.82600 | 12.26665 | 17 ft | 27 kts | 162° |
| 2026-05-01 14:08 | 41.82413 | 12.26746 | 15 ft | 29 kts | 162° |
| 2026-05-01 14:08 | 41.82222 | 12.26825 | 15 ft | 29 kts | 162° |
| 2026-05-01 14:08 | 41.82034 | 12.26903 | 15 ft | 28 kts | 163° |
| 2026-05-01 14:09 | 41.81842 | 12.26982 | 15 ft | 28 kts | 162° |
| 2026-05-01 14:09 | 41.81657 | 12.27062 | 15 ft | 28 kts | 162° |
| 2026-05-01 14:09 | 41.81471 | 12.27141 | 15 ft | 29 kts | 162° |
| 2026-05-01 14:09 | 41.81285 | 12.27218 | 15 ft | 28 kts | 163° |
| 2026-05-01 14:10 | 41.81094 | 12.27292 | 16 ft | 29 kts | 163° |
| 2026-05-01 14:10 | 41.80897 | 12.27349 | 15 ft | 30 kts | 185° |
| 2026-05-01 14:10 | 41.80691 | 12.27282 | 15 ft | 31 kts | 218° |
| 2026-05-01 14:10 | 41.80612 | 12.27061 | 16 ft | 24 kts | 250° |
| 2026-05-01 14:11 | 41.80551 | 12.26838 | 15 ft | 26 kts | 250° |
| 2026-05-01 14:11 | 41.80428 | 12.26403 | 15 ft | 18 kts | 229° |
| 2026-05-01 14:11 | 41.80314 | 12.26390 | 15 ft | 16 kts | 161° |
| 2026-05-01 14:12 | 41.80208 | 12.26400 | 15 ft | 15 kts | 197° |
| 2026-05-01 14:12 | 41.80102 | 12.26336 | 16 ft | 19 kts | 205° |
| 2026-05-01 14:12 | 41.79988 | 12.26265 | 15 ft | 17 kts | 205° |
| 2026-05-01 14:12 | 41.79883 | 12.26199 | 18 ft | 16 kts | 205° |
| 2026-05-01 14:13 | 41.79785 | 12.26138 | 16 ft | 15 kts | 212° |
| 2026-05-01 14:13 | 41.79770 | 12.26060 | 15 ft | 13 kts | 284° |
| 2026-05-01 14:13 | 41.79821 | 12.25914 | 15 ft | 13 kts | 295° |
| 2026-05-01 14:13 | 41.79827 | 12.25806 | 15 ft | 12 kts | 240° |
| 2026-05-01 14:14 | 41.79766 | 12.25744 | 15 ft | 11 kts | 205° |
| 2026-05-01 14:14 | 41.79701 | 12.25702 | 15 ft | 10 kts | 205° |
| 2026-05-01 14:14 | 41.79680 | 12.25656 | 15 ft | 6 kts | 286° |
| 2026-05-01 14:14 | 41.79691 | 12.25623 | 15 ft | 2 kts | 294° |
| 2026-05-01 14:15 | 41.79691 | 12.25621 | 15 ft | 0 kts | 294° |